Time,TemperatureF,DewpointF,PressureIn,WindDirection,WindDirectionDegrees,WindSpeedMPH,WindSpeedGustMPH,Humidity,HourlyPrecipIn,Conditions,Clouds,dailyrainin,SoftwareType,DateUTC
2013-05-21 00:04:00,39.4,21.8,30.42,North,0,0.0,0.0,49,0.00,CLR,,0.00,WeatherDisplay:10.37,2013-05-21 08:04:00,
2013-05-21 00:09:00,39.4,22.3,30.42,North,0,0.0,0.0,50,0.00,CLR,,0.00,WeatherDisplay:10.37,2013-05-21 08:09:00,
2013-05-21 00:14:00,39.6,22.9,30.42,North,0,0.0,0.0,51,0.00,CLR,,0.00,WeatherDisplay:10.37,2013-05-21 08:14:00,
2013-05-21 00:19:00,39.6,23.4,30.42,North,0,0.0,0.0,52,0.00,CLR,,0.00,WeatherDisplay:10.37,2013-05-21 08:19:00,
2013-05-21 00:24:00,39.4,22.7,30.42,North,0,0.0,0.0,51,0.00,CLR,,0.00,WeatherDisplay:10.37,2013-05-21 08:24:00,
2013-05-21 00:29:00,39.4,22.7,30.42,North,0,0.0,0.0,51,0.00,CLR,,0.00,WeatherDisplay:10.37,2013-05-21 08:29:00,
2013-05-21 00:34:00,39.2,22.6,30.42,North,0,0.0,0.0,51,0.00,CLR,,0.00,WeatherDisplay:10.37,2013-05-21 08:34:00,
2013-05-21 00:39:00,38.8,22.2,30.42,North,0,0.0,0.0,51,0.00,CLR,,0.00,WeatherDisplay:10.37,2013-05-21 08:39:00,
2013-05-21 00:44:00,38.5,21.9,30.42,North,0,0.0,0.0,51,0.00,CLR,,0.00,WeatherDisplay:10.37,2013-05-21 08:44:00,
2013-05-21 00:49:00,38.1,21.6,30.42,North,0,0.0,0.0,51,0.00,CLR,,0.00,WeatherDisplay:10.37,2013-05-21 08:49:00,
2013-05-21 00:54:00,37.9,21.4,30.42,North,0,0.0,0.0,51,0.00,CLR,,0.00,WeatherDisplay:10.37,2013-05-21 08:54:00,
2013-05-21 00:59:00,37.6,21.1,30.42,North,0,0.0,0.0,51,0.00,CLR,,0.00,WeatherDisplay:10.37,2013-05-21 08:59:00,
2013-05-21 01:04:00,37.2,21.2,30.42,North,0,0.0,0.0,52,0.00,CLR,,0.00,WeatherDisplay:10.37,2013-05-21 09:04:00,
2013-05-21 01:09:00,37.0,21.5,30.42,North,0,0.0,0.0,53,0.00,CLR,,0.00,WeatherDisplay:10.37,2013-05-21 09:09:00,
2013-05-21 01:14:00,36.7,21.1,30.42,North,0,0.0,0.0,53,0.00,CLR,,0.00,WeatherDisplay:10.37,2013-05-21 09:14:00,
2013-05-21 01:19:00,36.1,20.6,30.42,North,0,0.0,0.0,53,0.00,CLR,,0.00,WeatherDisplay:10.37,2013-05-21 09:19:00,
2013-05-21 01:24:00,36.1,21.1,30.42,North,0,0.0,0.0,54,0.00,CLR,,0.00,WeatherDisplay:10.37,2013-05-21 09:24:00,
2013-05-21 01:29:00,35.8,21.2,30.42,North,0,0.0,0.0,55,0.00,CLR,,0.00,WeatherDisplay:10.37,2013-05-21 09:29:00,
2013-05-21 01:34:00,35.8,20.7,30.42,North,0,0.0,0.0,54,0.00,CLR,,0.00,WeatherDisplay:10.37,2013-05-21 09:34:00,
2013-05-21 01:39:00,36.0,21.3,30.42,North,0,0.0,0.0,55,0.00,CLR,,0.00,WeatherDisplay:10.37,2013-05-21 09:39:00,
2013-05-21 01:44:00,36.1,21.9,30.42,North,0,0.0,0.0,56,0.00,CLR,,0.00,WeatherDisplay:10.37,2013-05-21 09:44:00,
2013-05-21 01:49:00,36.3,22.5,30.42,North,0,0.0,0.0,57,0.00,CLR,,0.00,WeatherDisplay:10.37,2013-05-21 09:49:00,
2013-05-21 01:54:00,36.3,22.9,30.42,North,0,0.0,0.0,58,0.00,CLR,,0.00,WeatherDisplay:10.37,2013-05-21 09:54:00,
2013-05-21 01:59:00,35.8,22.0,30.42,North,0,0.0,0.0,57,0.00,CLR,,0.00,WeatherDisplay:10.37,2013-05-21 09:59:00,
2013-05-21 02:04:00,35.8,22.4,30.42,North,0,0.0,0.0,58,0.00,CLR,,0.00,WeatherDisplay:10.37,2013-05-21 10:04:00,
2013-05-21 02:09:00,35.6,22.3,30.42,North,0,0.0,0.0,58,0.00,CLR,,0.00,WeatherDisplay:10.37,2013-05-21 10:09:00,
2013-05-21 02:14:00,35.1,22.2,30.42,North,0,0.0,0.0,59,0.00,CLR,,0.00,WeatherDisplay:10.37,2013-05-21 10:14:00,
2013-05-21 02:19:00,34.5,21.7,30.42,North,0,0.0,0.0,59,0.00,CLR,,0.00,WeatherDisplay:10.37,2013-05-21 10:19:00,
2013-05-21 02:24:00,34.2,20.9,30.42,North,0,0.0,0.0,58,0.00,CLR,,0.00,WeatherDisplay:10.37,2013-05-21 10:24:00,
2013-05-21 02:29:00,34.0,20.7,30.42,North,0,0.0,0.0,58,0.00,CLR,,0.00,WeatherDisplay:10.37,2013-05-21 10:29:00,
2013-05-21 02:34:00,33.8,21.0,30.42,North,0,0.0,0.0,59,0.00,CLR,,0.00,WeatherDisplay:10.37,2013-05-21 10:34:00,
2013-05-21 02:39:00,34.0,21.5,30.42,North,0,0.0,0.0,60,0.00,CLR,,0.00,WeatherDisplay:10.37,2013-05-21 10:39:00,
2013-05-21 02:44:00,33.4,21.4,30.42,North,0,0.0,0.0,61,0.00,CLR,,0.00,WeatherDisplay:10.37,2013-05-21 10:44:00,
2013-05-21 02:49:00,33.3,21.3,30.42,North,0,0.0,0.0,61,0.00,CLR,,0.00,WeatherDisplay:10.37,2013-05-21 10:49:00,
2013-05-21 02:54:00,33.1,21.5,30.42,North,0,0.0,0.0,62,0.00,CLR,,0.00,WeatherDisplay:10.37,2013-05-21 10:54:00,
2013-05-21 02:59:00,32.7,21.5,30.42,North,0,0.0,0.0,63,0.00,CLR,,0.00,WeatherDisplay:10.37,2013-05-21 10:59:00,
2013-05-21 03:04:00,32.7,21.5,30.42,North,0,0.0,0.0,63,0.00,CLR,,0.00,WeatherDisplay:10.37,2013-05-21 11:04:00,
2013-05-21 03:09:00,32.5,21.3,30.42,North,0,0.0,0.0,63,0.00,CLR,,0.00,WeatherDisplay:10.37,2013-05-21 11:09:00,
2013-05-21 03:14:00,32.5,21.7,30.42,North,0,0.0,0.0,64,0.00,CLR,,0.00,WeatherDisplay:10.37,2013-05-21 11:14:00,
2013-05-21 03:19:00,32.2,21.4,30.42,North,0,0.0,0.0,64,0.00,CLR,,0.00,WeatherDisplay:10.37,2013-05-21 11:19:00,
2013-05-21 03:24:00,32.0,21.6,30.42,North,0,0.0,0.0,65,0.00,CLR,,0.00,WeatherDisplay:10.37,2013-05-21 11:24:00,
2013-05-21 03:29:00,31.8,21.4,30.42,North,0,0.0,0.0,65,0.00,CLR,,0.00,WeatherDisplay:10.37,2013-05-21 11:29:00,
2013-05-21 03:34:00,31.8,21.4,30.42,North,0,0.0,0.0,65,0.00,CLR,,0.00,WeatherDisplay:10.37,2013-05-21 11:34:00,
2013-05-21 03:39:00,31.5,21.4,30.42,North,0,0.0,0.0,66,0.00,CLR,,0.00,WeatherDisplay:10.37,2013-05-21 11:39:00,
2013-05-21 03:44:00,31.5,21.4,30.42,North,0,0.0,0.0,66,0.00,CLR,,0.00,WeatherDisplay:10.37,2013-05-21 11:44:00,
2013-05-21 03:49:00,31.3,21.2,30.42,North,0,0.0,0.0,66,0.00,CLR,,0.00,WeatherDisplay:10.37,2013-05-21 11:49:00,
2013-05-21 03:54:00,31.3,21.6,30.42,North,0,0.0,0.0,67,0.00,CLR,,0.00,WeatherDisplay:10.37,2013-05-21 11:54:00,
2013-05-21 03:59:00,31.1,21.4,30.39,North,0,0.0,0.0,67,0.00,CLR,,0.00,WeatherDisplay:10.37,2013-05-21 11:59:00,
2013-05-21 04:04:00,31.3,21.6,30.39,North,0,0.0,0.0,67,0.00,CLR,,0.00,WeatherDisplay:10.37,2013-05-21 12:04:00,
2013-05-21 04:09:00,31.3,22.3,30.39,North,0,0.0,0.0,69,0.00,CLR,,0.00,WeatherDisplay:10.37,2013-05-21 12:09:00,
2013-05-21 04:14:00,31.3,22.3,30.39,North,0,0.0,0.0,69,0.00,CLR,,0.00,WeatherDisplay:10.37,2013-05-21 12:14:00,
2013-05-21 04:19:00,31.5,22.5,30.39,North,0,0.0,0.0,69,0.00,CLR,,0.00,WeatherDisplay:10.37,2013-05-21 12:19:00,
2013-05-21 04:24:00,31.5,22.8,30.39,North,0,0.0,0.0,70,0.00,CLR,,0.00,WeatherDisplay:10.37,2013-05-21 12:24:00,
2013-05-21 04:29:00,31.1,22.8,30.39,North,0,0.0,0.0,71,0.00,CLR,,0.00,WeatherDisplay:10.37,2013-05-21 12:29:00,
2013-05-21 04:34:00,31.1,22.8,30.39,North,0,0.0,0.0,71,0.00,CLR,,0.00,WeatherDisplay:10.37,2013-05-21 12:34:00,
2013-05-21 04:39:00,30.9,22.6,30.39,North,0,0.0,0.0,71,0.00,CLR,,0.00,WeatherDisplay:10.37,2013-05-21 12:39:00,
2013-05-21 04:44:00,30.7,22.4,30.39,North,0,0.0,0.0,71,0.00,CLR,,0.00,WeatherDisplay:10.37,2013-05-21 12:44:00,
2013-05-21 04:49:00,30.7,22.8,30.39,North,0,0.0,0.0,72,0.00,CLR,,0.00,WeatherDisplay:10.37,2013-05-21 12:49:00,
2013-05-21 04:54:00,30.6,22.6,30.39,North,0,0.0,0.0,72,0.00,CLR,,0.00,WeatherDisplay:10.37,2013-05-21 12:54:00,
2013-05-21 04:59:00,30.7,22.8,30.39,North,0,0.0,0.0,72,0.00,CLR,,0.00,WeatherDisplay:10.37,2013-05-21 12:59:00,
2013-05-21 05:04:00,30.6,22.6,30.39,North,0,0.0,0.0,72,0.00,CLR,,0.00,WeatherDisplay:10.37,2013-05-21 13:04:00,
2013-05-21 05:09:00,30.4,22.4,30.39,North,0,0.0,0.0,72,0.00,CLR,,0.00,WeatherDisplay:10.37,2013-05-21 13:09:00,
2013-05-21 05:14:00,30.4,22.8,30.39,North,0,0.0,0.0,73,0.00,CLR,,0.00,WeatherDisplay:10.37,2013-05-21 13:14:00,
2013-05-21 05:19:00,30.4,22.8,30.39,North,0,0.0,0.0,73,0.00,CLR,,0.00,WeatherDisplay:10.37,2013-05-21 13:19:00,
2013-05-21 05:24:00,30.2,22.6,30.39,North,0,0.0,0.0,73,0.00,CLR,,0.00,WeatherDisplay:10.37,2013-05-21 13:24:00,
2013-05-21 05:29:00,30.2,22.9,30.39,North,0,0.0,0.0,74,0.00,CLR,,0.00,WeatherDisplay:10.37,2013-05-21 13:29:00,
2013-05-21 05:34:00,30.4,23.1,30.39,North,0,0.0,0.0,74,0.00,CLR,,0.00,WeatherDisplay:10.37,2013-05-21 13:34:00,
2013-05-21 05:39:00,30.4,22.8,30.39,North,0,0.0,0.0,73,0.00,CLR,,0.00,WeatherDisplay:10.37,2013-05-21 13:39:00,
2013-05-21 05:44:00,30.6,23.3,30.39,North,0,0.0,0.0,74,0.00,CLR,,0.00,WeatherDisplay:10.37,2013-05-21 13:44:00,
2013-05-21 05:49:00,30.9,23.6,30.39,North,0,0.0,0.0,74,0.00,CLR,,0.00,WeatherDisplay:10.37,2013-05-21 13:49:00,
2013-05-21 05:54:00,31.6,24.3,30.39,North,0,0.0,0.0,74,0.00,CLR,,0.00,WeatherDisplay:10.37,2013-05-21 13:54:00,
2013-05-21 05:59:00,32.5,25.5,30.39,North,0,0.0,0.0,75,0.00,CLR,,0.00,WeatherDisplay:10.37,2013-05-21 13:59:00,
2013-05-21 06:04:00,33.4,27.0,30.39,North,0,0.0,0.0,77,0.00,CLR,,0.00,WeatherDisplay:10.37,2013-05-21 14:04:00,
2013-05-21 06:09:00,34.3,27.6,30.39,North,0,0.0,0.0,76,0.00,CLR,,0.00,WeatherDisplay:10.37,2013-05-21 14:09:00,
2013-05-21 06:14:00,35.1,28.3,30.36,North,0,0.0,0.0,76,0.00,CLR,,0.00,WeatherDisplay:10.37,2013-05-21 14:14:00,
2013-05-21 06:19:00,35.6,28.5,30.36,North,0,0.0,0.0,75,0.00,CLR,,0.00,WeatherDisplay:10.37,2013-05-21 14:19:00,
2013-05-21 06:24:00,36.1,28.6,30.36,North,0,0.0,0.0,74,0.00,CLR,,0.00,WeatherDisplay:10.37,2013-05-21 14:24:00,
2013-05-21 06:29:00,36.1,28.0,30.36,North,0,0.0,0.0,72,0.00,CLR,,0.00,WeatherDisplay:10.37,2013-05-21 14:29:00,
2013-05-21 06:35:00,36.5,28.0,30.36,North,0,0.0,0.0,71,0.00,CLR,,0.00,WeatherDisplay:10.37,2013-05-21 14:35:00,
2013-05-21 06:40:00,36.7,27.8,30.36,North,0,0.0,0.0,70,0.00,CLR,,0.00,WeatherDisplay:10.37,2013-05-21 14:40:00,
2013-05-21 06:45:00,37.4,28.2,30.36,North,0,0.0,0.0,69,0.00,CLR,,0.00,WeatherDisplay:10.37,2013-05-21 14:45:00,
2013-05-21 06:50:00,37.6,28.3,30.36,North,0,0.0,0.0,69,0.00,CLR,,0.00,WeatherDisplay:10.37,2013-05-21 14:50:00,
2013-05-21 06:55:00,38.1,28.1,30.36,North,0,0.0,0.0,67,0.00,CLR,,0.00,WeatherDisplay:10.37,2013-05-21 14:55:00,
2013-05-21 07:00:00,38.8,28.4,30.36,North,0,0.0,0.0,66,0.00,CLR,,0.00,WeatherDisplay:10.37,2013-05-21 15:00:00,
2013-05-21 07:05:00,39.4,27.4,30.36,North,0,0.0,0.0,62,0.00,CLR,,0.00,WeatherDisplay:10.37,2013-05-21 15:05:00,
2013-05-21 07:10:00,39.6,27.2,30.36,North,0,0.0,0.0,61,0.00,CLR,,0.00,WeatherDisplay:10.37,2013-05-21 15:10:00,
2013-05-21 07:15:00,39.6,26.0,30.36,North,0,0.0,0.0,58,0.00,CLR,,0.00,WeatherDisplay:10.37,2013-05-21 15:15:00,
2013-05-21 07:20:00,39.7,25.7,30.36,North,0,0.0,0.0,57,0.00,CLR,,0.00,WeatherDisplay:10.37,2013-05-21 15:20:00,
2013-05-21 07:25:00,39.9,25.5,30.36,North,0,0.0,0.0,56,0.00,CLR,,0.00,WeatherDisplay:10.37,2013-05-21 15:25:00,
2013-05-21 07:30:00,40.3,24.5,30.36,North,0,0.0,0.0,53,0.00,CLR,,0.00,WeatherDisplay:10.37,2013-05-21 15:30:00,
2013-05-21 07:35:00,40.6,24.8,30.36,North,0,0.0,0.0,53,0.00,CLR,,0.00,WeatherDisplay:10.37,2013-05-21 15:35:00,
2013-05-21 07:40:00,41.2,24.9,30.36,North,0,0.0,0.0,52,0.00,CLR,,0.00,WeatherDisplay:10.37,2013-05-21 15:40:00,
2013-05-21 07:45:00,41.7,25.8,30.36,North,0,0.0,0.0,53,0.00,CLR,,0.00,WeatherDisplay:10.37,2013-05-21 15:45:00,
2013-05-21 07:50:00,42.1,25.7,30.36,North,0,0.0,0.0,52,0.00,CLR,,0.00,WeatherDisplay:10.37,2013-05-21 15:50:00,
2013-05-21 07:55:00,42.4,26.0,30.36,North,0,0.0,0.0,52,0.00,CLR,,0.00,WeatherDisplay:10.37,2013-05-21 15:55:00,
2013-05-21 08:00:00,42.8,25.9,30.36,North,0,0.0,0.0,51,0.00,CLR,,0.00,WeatherDisplay:10.37,2013-05-21 16:00:00,
2013-05-21 08:05:00,43.3,26.4,30.36,North,0,0.0,0.0,51,0.00,CLR,,0.00,WeatherDisplay:10.37,2013-05-21 16:05:00,
2013-05-21 08:10:00,43.7,26.7,30.36,North,0,0.0,0.0,51,0.00,CLR,,0.00,WeatherDisplay:10.37,2013-05-21 16:10:00,
2013-05-21 08:15:00,43.9,26.9,30.36,North,0,0.0,0.0,51,0.00,CLR,,0.00,WeatherDisplay:10.37,2013-05-21 16:15:00,
2013-05-21 08:20:00,45.0,27.9,30.36,North,0,0.0,0.0,51,0.00,CLR,,0.00,WeatherDisplay:10.37,2013-05-21 16:20:00,
2013-05-21 08:25:00,45.1,28.1,30.36,North,0,0.0,0.0,51,0.00,CLR,,0.00,WeatherDisplay:10.37,2013-05-21 16:25:00,
2013-05-21 08:30:00,45.1,28.1,30.36,North,0,0.0,0.0,51,0.00,CLR,,0.00,WeatherDisplay:10.37,2013-05-21 16:30:00,
2013-05-21 08:35:00,45.1,27.6,30.36,North,0,0.0,0.0,50,0.00,CLR,,0.00,WeatherDisplay:10.37,2013-05-21 16:35:00,
2013-05-21 08:40:00,46.4,28.8,30.36,North,0,0.0,0.0,50,0.00,CLR,,0.00,WeatherDisplay:10.37,2013-05-21 16:40:00,
2013-05-21 08:45:00,46.2,29.1,30.36,North,0,0.0,0.0,51,0.00,CLR,,0.00,WeatherDisplay:10.37,2013-05-21 16:45:00,
2013-05-21 08:50:00,46.6,29.4,30.36,North,0,0.0,0.0,51,0.00,CLR,,0.00,WeatherDisplay:10.37,2013-05-21 16:50:00,
2013-05-21 08:55:00,46.8,29.6,30.36,North,0,0.0,0.0,51,0.00,CLR,,0.00,WeatherDisplay:10.37,2013-05-21 16:55:00,
2013-05-21 09:00:00,46.4,28.8,30.36,North,0,0.0,0.0,50,0.00,CLR,,0.00,WeatherDisplay:10.37,2013-05-21 17:00:00,
2013-05-21 09:05:00,46.2,28.6,30.36,North,0,0.0,0.0,50,0.00,CLR,,0.00,WeatherDisplay:10.37,2013-05-21 17:05:00,
2013-05-21 09:10:00,46.2,29.1,30.36,North,0,0.0,0.0,51,0.00,CLR,,0.00,WeatherDisplay:10.37,2013-05-21 17:10:00,
2013-05-21 09:15:00,46.2,28.6,30.33,North,0,0.0,0.0,50,0.00,CLR,,0.00,WeatherDisplay:10.37,2013-05-21 17:15:00,
2013-05-21 09:20:00,46.6,28.9,30.33,North,0,0.0,0.0,50,0.00,CLR,,0.00,WeatherDisplay:10.37,2013-05-21 17:20:00,
2013-05-21 09:25:00,46.9,29.2,30.33,North,0,0.0,0.0,50,0.00,CLR,,0.00,WeatherDisplay:10.37,2013-05-21 17:25:00,
2013-05-21 09:30:00,46.9,28.3,30.33,North,0,0.0,0.0,48,0.00,CLR,,0.00,WeatherDisplay:10.37,2013-05-21 17:30:00,
2013-05-21 09:35:00,46.4,27.8,30.33,North,0,0.0,0.0,48,0.00,CLR,,0.00,WeatherDisplay:10.37,2013-05-21 17:35:00,
2013-05-21 09:40:00,46.9,28.8,30.33,North,0,0.0,0.0,49,0.00,CLR,,0.00,WeatherDisplay:10.37,2013-05-21 17:40:00,
2013-05-21 09:45:00,46.9,29.2,30.33,North,0,0.0,0.0,50,0.00,CLR,,0.00,WeatherDisplay:10.37,2013-05-21 17:45:00,
2013-05-21 09:50:00,46.6,28.4,30.33,North,0,0.0,0.0,49,0.00,CLR,,0.00,WeatherDisplay:10.37,2013-05-21 17:50:00,
2013-05-21 09:55:00,46.2,28.1,30.33,North,0,0.0,0.0,49,0.00,CLR,,0.00,WeatherDisplay:10.37,2013-05-21 17:55:00,
2013-05-21 10:00:00,46.0,28.4,30.33,North,0,0.0,0.0,50,0.00,CLR,,0.00,WeatherDisplay:10.37,2013-05-21 18:00:00,
2013-05-21 10:05:00,46.9,30.2,30.33,North,0,0.0,0.0,52,0.00,CLR,,0.00,WeatherDisplay:10.37,2013-05-21 18:05:00,
2013-05-21 10:10:00,47.3,30.1,30.33,North,0,0.0,0.0,51,0.00,CLR,,0.00,WeatherDisplay:10.37,2013-05-21 18:10:00,
2013-05-21 10:15:00,47.3,30.5,30.33,North,0,0.0,0.0,52,0.00,CLR,,0.00,WeatherDisplay:10.37,2013-05-21 18:15:00,
2013-05-21 10:20:00,47.3,30.5,30.33,North,0,0.0,0.0,52,0.00,CLR,,0.00,WeatherDisplay:10.37,2013-05-21 18:20:00,
2013-05-21 10:25:00,46.9,30.2,30.33,North,0,0.0,0.0,52,0.00,CLR,,0.00,WeatherDisplay:10.37,2013-05-21 18:25:00,
2013-05-21 10:30:00,47.3,30.5,30.33,North,0,0.0,0.0,52,0.00,CLR,,0.00,WeatherDisplay:10.37,2013-05-21 18:30:00,
2013-05-21 10:35:00,47.7,31.4,30.33,North,0,0.0,0.0,53,0.00,CLR,,0.00,WeatherDisplay:10.37,2013-05-21 18:35:00,
2013-05-21 10:40:00,48.6,31.2,30.33,North,0,0.0,0.0,51,0.00,CLR,,0.00,WeatherDisplay:10.37,2013-05-21 18:40:00,
2013-05-21 10:45:00,49.3,31.9,30.30,North,0,0.0,0.0,51,0.00,CLR,,0.00,WeatherDisplay:10.37,2013-05-21 18:45:00,
2013-05-21 10:50:00,49.8,31.9,30.30,North,0,0.0,0.0,50,0.00,CLR,,0.00,WeatherDisplay:10.37,2013-05-21 18:50:00,
2013-05-21 10:55:00,50.0,31.1,30.30,North,0,0.0,0.0,48,0.00,CLR,,0.00,WeatherDisplay:10.37,2013-05-21 18:55:00,
2013-05-21 11:00:00,49.8,30.4,30.30,North,0,0.0,0.0,47,0.00,CLR,,0.00,WeatherDisplay:10.37,2013-05-21 19:00:00,
2013-05-21 11:05:00,50.0,30.5,30.30,North,0,0.0,0.0,47,0.00,CLR,,0.00,WeatherDisplay:10.37,2013-05-21 19:05:00,
2013-05-21 11:10:00,50.7,31.2,30.30,North,0,0.0,0.0,47,0.00,CLR,,0.00,WeatherDisplay:10.37,2013-05-21 19:10:00,
2013-05-21 11:15:00,51.1,30.5,30.30,North,0,0.0,0.0,45,0.00,CLR,,0.00,WeatherDisplay:10.37,2013-05-21 19:15:00,
2013-05-21 11:20:00,51.6,30.9,30.30,North,0,0.0,0.0,45,0.00,CLR,,0.00,WeatherDisplay:10.37,2013-05-21 19:20:00,
2013-05-21 11:25:00,52.2,30.9,30.30,North,0,0.0,0.0,44,0.00,CLR,,0.00,WeatherDisplay:10.37,2013-05-21 19:25:00,
2013-05-21 11:30:00,52.3,30.5,30.30,North,0,0.0,0.0,43,0.00,CLR,,0.00,WeatherDisplay:10.37,2013-05-21 19:30:00,
2013-05-21 11:35:00,52.5,30.1,30.30,North,0,0.0,0.0,42,0.00,CLR,,0.00,WeatherDisplay:10.37,2013-05-21 19:35:00,
2013-05-21 11:40:00,53.2,32.4,30.30,North,0,0.0,0.0,45,0.00,CLR,,0.00,WeatherDisplay:10.37,2013-05-21 19:40:00,
2013-05-21 11:45:00,53.6,31.6,30.30,North,0,0.0,0.0,43,0.00,CLR,,0.00,WeatherDisplay:10.37,2013-05-21 19:45:00,
2013-05-21 11:50:00,54.1,32.7,30.30,North,0,0.0,0.0,44,0.00,CLR,,0.00,WeatherDisplay:10.37,2013-05-21 19:50:00,
2013-05-21 11:55:00,54.1,32.7,30.30,North,0,0.0,0.0,44,0.00,CLR,,0.00,WeatherDisplay:10.37,2013-05-21 19:55:00,
2013-05-21 12:00:00,53.1,32.8,30.30,North,0,0.0,0.0,46,0.00,CLR,,0.00,WeatherDisplay:10.37,2013-05-21 20:00:00,
2013-05-21 12:05:00,54.3,34.0,30.30,North,0,0.0,0.0,46,0.00,CLR,,0.00,WeatherDisplay:10.37,2013-05-21 20:05:00,
2013-05-21 12:10:00,54.3,33.4,30.30,North,0,0.0,0.0,45,0.00,CLR,,0.00,WeatherDisplay:10.37,2013-05-21 20:10:00,
2013-05-21 12:15:00,54.9,33.3,30.30,North,0,0.0,0.0,44,0.00,CLR,,0.00,WeatherDisplay:10.37,2013-05-21 20:15:00,
2013-05-21 12:20:00,53.6,31.0,30.30,North,0,0.0,0.0,42,0.00,CLR,,0.00,WeatherDisplay:10.37,2013-05-21 20:20:00,
2013-05-21 12:25:00,53.6,31.0,30.30,North,0,0.0,0.0,42,0.00,CLR,,0.00,WeatherDisplay:10.37,2013-05-21 20:25:00,
2013-05-21 12:30:00,52.3,29.3,30.30,North,0,0.0,0.0,41,0.00,CLR,,0.00,WeatherDisplay:10.37,2013-05-21 20:30:00,
2013-05-21 12:35:00,53.2,30.7,30.30,North,0,0.0,0.0,42,0.00,CLR,,0.00,WeatherDisplay:10.37,2013-05-21 20:35:00,
2013-05-21 12:40:00,54.5,31.9,30.30,North,0,0.0,0.0,42,0.00,CLR,,0.00,WeatherDisplay:10.37,2013-05-21 20:40:00,
2013-05-21 12:45:00,53.8,31.2,30.30,North,0,0.0,0.0,42,0.00,CLR,,0.00,WeatherDisplay:10.37,2013-05-21 20:45:00,
2013-05-21 12:50:00,53.6,31.0,30.30,North,0,0.0,0.0,42,0.00,CLR,,0.00,WeatherDisplay:10.37,2013-05-21 20:50:00,
2013-05-21 12:55:00,55.0,33.5,30.30,North,0,0.0,0.0,44,0.00,CLR,,0.00,WeatherDisplay:10.37,2013-05-21 20:55:00,
2013-05-21 13:00:00,55.9,33.7,30.27,North,0,0.0,0.0,43,0.00,CLR,,0.00,WeatherDisplay:10.37,2013-05-21 21:00:00,
2013-05-21 13:06:00,57.2,33.7,30.27,North,0,0.0,0.0,41,0.00,CLR,,0.00,WeatherDisplay:10.37,2013-05-21 21:06:00,
2013-05-21 13:11:00,57.7,33.6,30.27,North,0,0.0,0.0,40,0.00,CLR,,0.00,WeatherDisplay:10.37,2013-05-21 21:11:00,
2013-05-21 13:16:00,57.9,33.1,30.27,North,0,0.0,0.0,39,0.00,CLR,,0.00,WeatherDisplay:10.37,2013-05-21 21:16:00,
2013-05-21 13:21:00,57.2,33.1,30.27,North,0,0.0,0.0,40,0.00,CLR,,0.00,WeatherDisplay:10.37,2013-05-21 21:21:00,
2013-05-21 13:26:00,58.1,33.9,30.27,North,0,0.0,0.0,40,0.00,CLR,,0.00,WeatherDisplay:10.37,2013-05-21 21:26:00,
2013-05-21 13:31:00,58.3,32.8,30.27,North,0,0.0,0.0,38,0.00,CLR,,0.00,WeatherDisplay:10.37,2013-05-21 21:31:00,
2013-05-21 13:36:00,58.3,32.8,30.27,North,0,0.0,0.0,38,0.00,CLR,,0.00,WeatherDisplay:10.37,2013-05-21 21:36:00,
2013-05-21 13:41:00,59.0,33.4,30.27,North,0,0.0,0.0,38,0.00,CLR,,0.00,WeatherDisplay:10.37,2013-05-21 21:41:00,
2013-05-21 13:46:00,59.0,33.4,30.27,North,0,0.0,0.0,38,0.00,CLR,,0.00,WeatherDisplay:10.37,2013-05-21 21:46:00,
2013-05-21 13:51:00,58.6,33.1,30.27,North,0,0.0,0.0,38,0.00,CLR,,0.00,WeatherDisplay:10.37,2013-05-21 21:51:00,
2013-05-21 13:56:00,57.7,31.6,30.27,North,0,0.0,0.0,37,0.00,CLR,,0.00,WeatherDisplay:10.37,2013-05-21 21:56:00,
2013-05-21 14:01:00,57.6,31.5,30.27,North,0,0.0,0.0,37,0.00,CLR,,0.00,WeatherDisplay:10.37,2013-05-21 22:01:00,
2013-05-21 14:06:00,57.7,32.9,30.27,North,0,0.0,0.0,39,0.00,CLR,,0.00,WeatherDisplay:10.37,2013-05-21 22:06:00,
2013-05-21 14:11:00,56.8,32.1,30.27,North,0,0.0,0.0,39,0.00,CLR,,0.00,WeatherDisplay:10.37,2013-05-21 22:11:00,
2013-05-21 14:16:00,56.8,32.8,30.27,North,0,0.0,0.0,40,0.00,CLR,,0.00,WeatherDisplay:10.37,2013-05-21 22:16:00,
2013-05-21 14:21:00,56.3,31.6,30.27,North,0,0.0,0.0,39,0.00,CLR,,0.00,WeatherDisplay:10.37,2013-05-21 22:21:00,
2013-05-21 14:26:00,56.1,31.5,30.27,North,0,0.0,0.0,39,0.00,CLR,,0.00,WeatherDisplay:10.37,2013-05-21 22:26:00,
2013-05-21 14:31:00,56.1,30.8,30.27,North,0,0.0,0.0,38,0.00,CLR,,0.00,WeatherDisplay:10.37,2013-05-21 22:31:00,
2013-05-21 14:36:00,56.3,31.6,30.27,North,0,0.0,0.0,39,0.00,CLR,,0.00,WeatherDisplay:10.37,2013-05-21 22:36:00,
2013-05-21 14:41:00,56.7,32.0,30.27,North,0,0.0,0.0,39,0.00,CLR,,0.00,WeatherDisplay:10.37,2013-05-21 22:41:00,
2013-05-21 14:46:00,56.7,32.0,30.24,North,0,0.0,0.0,39,0.00,CLR,,0.00,WeatherDisplay:10.37,2013-05-21 22:46:00,
2013-05-21 14:51:00,57.0,32.3,30.24,North,0,0.0,0.0,39,0.00,CLR,,0.00,WeatherDisplay:10.37,2013-05-21 22:51:00,
2013-05-21 14:56:00,57.0,31.6,30.24,North,0,0.0,0.0,38,0.00,CLR,,0.00,WeatherDisplay:10.37,2013-05-21 22:56:00,
2013-05-21 15:01:00,57.7,32.3,30.24,North,0,0.0,0.0,38,0.00,CLR,,0.00,WeatherDisplay:10.37,2013-05-21 23:01:00,
2013-05-21 15:06:00,57.7,32.3,30.24,North,0,0.0,0.0,38,0.00,CLR,,0.00,WeatherDisplay:10.37,2013-05-21 23:06:00,
2013-05-21 15:11:00,57.4,31.3,30.24,North,0,0.0,0.0,37,0.00,CLR,,0.00,WeatherDisplay:10.37,2013-05-21 23:11:00,
2013-05-21 15:16:00,57.6,31.5,30.24,North,0,0.0,0.0,37,0.00,CLR,,0.00,WeatherDisplay:10.37,2013-05-21 23:16:00,
2013-05-21 15:21:00,57.2,31.1,30.24,North,0,0.0,0.0,37,0.00,CLR,,0.00,WeatherDisplay:10.37,2013-05-21 23:21:00,
2013-05-21 15:26:00,57.2,31.1,30.24,North,0,0.0,0.0,37,0.00,CLR,,0.00,WeatherDisplay:10.37,2013-05-21 23:26:00,
2013-05-21 15:31:00,57.0,31.0,30.24,North,0,0.0,0.0,37,0.00,CLR,,0.00,WeatherDisplay:10.37,2013-05-21 23:31:00,
2013-05-21 15:36:00,58.5,32.3,30.24,North,0,0.0,0.0,37,0.00,CLR,,0.00,WeatherDisplay:10.37,2013-05-21 23:36:00,
2013-05-21 15:41:00,58.8,32.6,30.24,North,0,0.0,0.0,37,0.00,CLR,,0.00,WeatherDisplay:10.37,2013-05-21 23:41:00,
2013-05-21 15:46:00,56.7,31.3,30.24,North,0,0.0,0.0,38,0.00,CLR,,0.00,WeatherDisplay:10.37,2013-05-21 23:46:00,
2013-05-21 15:51:00,56.3,31.6,30.24,North,0,0.0,0.0,39,0.00,CLR,,0.00,WeatherDisplay:10.37,2013-05-21 23:51:00,
2013-05-21 15:56:00,57.0,32.3,30.24,North,0,0.0,0.0,39,0.00,CLR,,0.00,WeatherDisplay:10.37,2013-05-21 23:56:00,
2013-05-21 16:01:00,57.4,32.6,30.24,North,0,0.0,0.0,39,0.00,CLR,,0.00,WeatherDisplay:10.37,2013-05-22 00:01:00,
2013-05-21 16:06:00,58.1,32.6,30.24,North,0,0.0,0.0,38,0.00,CLR,,0.00,WeatherDisplay:10.37,2013-05-22 00:06:00,
2013-05-21 16:11:00,58.6,33.1,30.24,North,0,0.0,0.0,38,0.00,CLR,,0.00,WeatherDisplay:10.37,2013-05-22 00:11:00,
2013-05-21 16:16:00,59.2,32.9,30.24,North,0,0.0,0.0,37,0.00,CLR,,0.00,WeatherDisplay:10.37,2013-05-22 00:16:00,
2013-05-21 16:21:00,57.7,31.6,30.24,North,0,0.0,0.0,37,0.00,CLR,,0.00,WeatherDisplay:10.37,2013-05-22 00:21:00,
2013-05-21 16:26:00,56.8,30.8,30.24,North,0,0.0,0.0,37,0.00,CLR,,0.00,WeatherDisplay:10.37,2013-05-22 00:26:00,
2013-05-21 16:31:00,56.8,31.5,30.21,North,0,0.0,0.0,38,0.00,CLR,,0.00,WeatherDisplay:10.37,2013-05-22 00:31:00,
2013-05-21 16:36:00,57.2,31.8,30.21,North,0,0.0,0.0,38,0.00,CLR,,0.00,WeatherDisplay:10.37,2013-05-22 00:36:00,
2013-05-21 16:41:00,56.8,31.5,30.21,North,0,0.0,0.0,38,0.00,CLR,,0.00,WeatherDisplay:10.37,2013-05-22 00:41:00,
2013-05-21 16:46:00,56.8,31.5,30.21,North,0,0.0,0.0,38,0.00,CLR,,0.00,WeatherDisplay:10.37,2013-05-22 00:46:00,
2013-05-21 16:51:00,57.6,31.5,30.21,North,0,0.0,0.0,37,0.00,CLR,,0.00,WeatherDisplay:10.37,2013-05-22 00:51:00,
2013-05-21 16:56:00,57.9,31.8,30.21,North,0,0.0,0.0,37,0.00,CLR,,0.00,WeatherDisplay:10.37,2013-05-22 00:56:00,
2013-05-21 17:01:00,58.6,32.4,30.21,North,0,0.0,0.0,37,0.00,CLR,,0.00,WeatherDisplay:10.37,2013-05-22 01:01:00,
2013-05-21 17:06:00,56.5,30.5,30.21,North,0,0.0,0.0,37,0.00,CLR,,0.00,WeatherDisplay:10.37,2013-05-22 01:06:00,
2013-05-21 17:11:00,55.8,29.9,30.21,North,0,0.0,0.0,37,0.00,CLR,,0.00,WeatherDisplay:10.37,2013-05-22 01:11:00,
2013-05-21 17:16:00,54.3,29.2,30.21,North,0,0.0,0.0,38,0.00,CLR,,0.00,WeatherDisplay:10.37,2013-05-22 01:16:00,
2013-05-21 17:21:00,54.0,28.9,30.21,North,0,0.0,0.0,38,0.00,CLR,,0.00,WeatherDisplay:10.37,2013-05-22 01:21:00,
2013-05-21 17:26:00,53.8,29.4,30.21,North,0,0.0,0.0,39,0.00,CLR,,0.00,WeatherDisplay:10.37,2013-05-22 01:26:00,
2013-05-21 17:31:00,53.8,29.4,30.21,North,0,0.0,0.0,39,0.00,CLR,,0.00,WeatherDisplay:10.37,2013-05-22 01:31:00,
2013-05-21 17:36:00,54.1,29.7,30.21,North,0,0.0,0.0,39,0.00,CLR,,0.00,WeatherDisplay:10.37,2013-05-22 01:36:00,
2013-05-21 17:41:00,54.0,30.2,30.21,North,0,0.0,0.0,40,0.00,CLR,,0.00,WeatherDisplay:10.37,2013-05-22 01:41:00,
2013-05-21 17:46:00,54.0,30.2,30.21,North,0,0.0,0.0,40,0.00,CLR,,0.00,WeatherDisplay:10.37,2013-05-22 01:46:00,
2013-05-21 17:51:00,54.1,30.3,30.21,North,0,0.0,0.0,40,0.00,CLR,,0.00,WeatherDisplay:10.37,2013-05-22 01:51:00,
2013-05-21 17:56:00,54.1,30.9,30.21,North,0,0.0,0.0,41,0.00,CLR,,0.00,WeatherDisplay:10.37,2013-05-22 01:56:00,
2013-05-21 18:01:00,53.6,29.8,30.21,North,0,0.0,0.0,40,0.00,CLR,,0.00,WeatherDisplay:10.37,2013-05-22 02:01:00,
2013-05-21 18:06:00,53.2,30.1,30.21,North,0,0.0,0.0,41,0.00,CLR,,0.00,WeatherDisplay:10.37,2013-05-22 02:06:00,
2013-05-21 18:11:00,53.2,30.1,30.21,North,0,0.0,0.0,41,0.00,CLR,,0.00,WeatherDisplay:10.37,2013-05-22 02:11:00,
2013-05-21 18:16:00,53.1,30.0,30.18,North,0,0.0,0.0,41,0.00,CLR,,0.00,WeatherDisplay:10.37,2013-05-22 02:16:00,
2013-05-21 18:21:00,52.9,29.2,30.18,North,0,0.0,0.0,40,0.00,CLR,,0.00,WeatherDisplay:10.37,2013-05-22 02:21:00,
2013-05-21 18:26:00,52.9,29.2,30.18,North,0,0.0,0.0,40,0.00,CLR,,0.00,WeatherDisplay:10.37,2013-05-22 02:26:00,
2013-05-21 18:31:00,52.9,29.2,30.18,North,0,0.0,0.0,40,0.00,CLR,,0.00,WeatherDisplay:10.37,2013-05-22 02:31:00,
2013-05-21 18:36:00,52.3,28.1,30.18,North,0,0.0,0.0,39,0.00,CLR,,0.00,WeatherDisplay:10.37,2013-05-22 02:36:00,
2013-05-21 18:41:00,52.3,28.7,30.18,North,0,0.0,0.0,40,0.00,CLR,,0.00,WeatherDisplay:10.37,2013-05-22 02:41:00,
2013-05-21 18:46:00,52.0,28.4,30.18,North,0,0.0,0.0,40,0.00,CLR,,0.00,WeatherDisplay:10.37,2013-05-22 02:46:00,
2013-05-21 18:51:00,51.6,28.1,30.18,North,0,0.0,0.0,40,0.00,CLR,,0.00,WeatherDisplay:10.37,2013-05-22 02:51:00,
2013-05-21 18:56:00,51.6,28.1,30.18,North,0,0.0,0.0,40,0.00,CLR,,0.00,WeatherDisplay:10.37,2013-05-22 02:56:00,
2013-05-21 19:01:00,51.4,27.9,30.18,North,0,0.0,0.0,40,0.00,CLR,,0.00,WeatherDisplay:10.37,2013-05-22 03:01:00,
2013-05-21 19:06:00,51.3,27.7,30.18,North,0,0.0,0.0,40,0.00,CLR,,0.00,WeatherDisplay:10.37,2013-05-22 03:06:00,
2013-05-21 19:11:00,51.1,27.6,30.18,North,0,0.0,0.0,40,0.00,CLR,,0.00,WeatherDisplay:10.37,2013-05-22 03:11:00,
2013-05-21 19:16:00,51.1,27.6,30.18,North,0,0.0,0.0,40,0.00,CLR,,0.00,WeatherDisplay:10.37,2013-05-22 03:16:00,
2013-05-21 19:21:00,50.7,27.2,30.18,North,0,0.0,0.0,40,0.00,CLR,,0.00,WeatherDisplay:10.37,2013-05-22 03:21:00,
2013-05-21 19:26:00,50.4,26.9,30.18,North,0,0.0,0.0,40,0.00,CLR,,0.00,WeatherDisplay:10.37,2013-05-22 03:26:00,
2013-05-21 19:31:00,50.2,27.4,30.18,North,0,0.0,0.0,41,0.00,CLR,,0.00,WeatherDisplay:10.37,2013-05-22 03:31:00,
2013-05-21 19:36:00,50.0,27.2,30.18,North,0,0.0,0.0,41,0.00,CLR,,0.00,WeatherDisplay:10.37,2013-05-22 03:36:00,
2013-05-21 19:41:00,49.8,27.6,30.18,North,0,0.0,0.0,42,0.00,CLR,,0.00,WeatherDisplay:10.37,2013-05-22 03:41:00,
2013-05-21 19:46:00,49.6,26.9,30.15,North,0,0.0,0.0,41,0.00,CLR,,0.00,WeatherDisplay:10.37,2013-05-22 03:46:00,
2013-05-21 19:51:00,49.3,27.1,30.15,North,0,0.0,0.0,42,0.00,CLR,,0.00,WeatherDisplay:10.37,2013-05-22 03:51:00,
2013-05-21 19:56:00,49.1,27.0,30.15,North,0,0.0,0.0,42,0.00,CLR,,0.00,WeatherDisplay:10.37,2013-05-22 03:56:00,
2013-05-21 20:01:00,49.1,27.0,30.15,North,0,0.0,0.0,42,0.00,CLR,,0.00,WeatherDisplay:10.37,2013-05-22 04:01:00,
2013-05-21 20:02:00,49.1,27.5,30.15,North,0,0.0,0.0,43,0.00,CLR,,0.00,WeatherDisplay:10.37,2013-05-22 04:02:00,
2013-05-21 20:04:00,49.1,27.5,30.15,North,0,0.0,0.0,43,0.00,CLR,,0.00,WeatherDisplay:10.37,2013-05-22 04:04:00,
2013-05-21 20:09:00,49.1,27.5,30.15,North,0,0.0,0.0,43,0.00,CLR,,0.00,WeatherDisplay:10.37,2013-05-22 04:09:00,
2013-05-21 20:10:00,49.1,27.5,30.15,North,0,0.0,0.0,43,0.00,CLR,,0.00,WeatherDisplay:10.37,2013-05-22 04:10:00,
2013-05-21 20:15:00,49.1,27.0,30.15,North,0,0.0,0.0,42,0.00,CLR,,0.00,WeatherDisplay:10.37,2013-05-22 04:15:00,
2013-05-21 20:20:00,49.3,27.1,30.15,North,0,0.0,0.0,42,0.00,CLR,,0.00,WeatherDisplay:10.37,2013-05-22 04:20:00,
2013-05-21 20:25:00,49.3,26.5,30.15,North,0,0.0,0.0,41,0.00,CLR,,0.00,WeatherDisplay:10.37,2013-05-22 04:25:00,
2013-05-21 20:30:00,49.3,26.5,30.15,North,0,0.0,0.0,41,0.00,CLR,,0.00,WeatherDisplay:10.37,2013-05-22 04:30:00,
2013-05-21 20:35:00,49.3,26.5,30.15,North,0,0.0,0.0,41,0.00,CLR,,0.00,WeatherDisplay:10.37,2013-05-22 04:35:00,
2013-05-21 20:40:00,49.1,27.0,30.15,North,0,0.0,0.0,42,0.00,CLR,,0.00,WeatherDisplay:10.37,2013-05-22 04:40:00,
2013-05-21 20:45:00,48.9,26.8,30.15,North,0,0.0,0.0,42,0.00,CLR,,0.00,WeatherDisplay:10.37,2013-05-22 04:45:00,
2013-05-21 20:50:00,48.7,26.6,30.15,North,0,0.0,0.0,42,0.00,CLR,,0.00,WeatherDisplay:10.37,2013-05-22 04:50:00,
2013-05-21 20:55:00,48.4,26.3,30.15,North,0,0.0,0.0,42,0.00,CLR,,0.00,WeatherDisplay:10.37,2013-05-22 04:55:00,
2013-05-21 21:00:00,48.0,26.0,30.15,North,0,0.0,0.0,42,0.00,CLR,,0.00,WeatherDisplay:10.37,2013-05-22 05:00:00,
2013-05-21 21:05:00,47.8,26.4,30.15,North,0,0.0,0.0,43,0.00,CLR,,0.00,WeatherDisplay:10.37,2013-05-22 05:05:00,
2013-05-21 21:10:00,47.7,26.2,30.15,North,0,0.0,0.0,43,0.00,CLR,,0.00,WeatherDisplay:10.37,2013-05-22 05:10:00,
2013-05-21 21:15:00,47.5,26.1,30.15,North,0,0.0,0.0,43,0.00,CLR,,0.00,WeatherDisplay:10.37,2013-05-22 05:15:00,
2013-05-21 21:20:00,47.3,25.9,30.15,North,0,0.0,0.0,43,0.00,CLR,,0.00,WeatherDisplay:10.37,2013-05-22 05:20:00,
2013-05-21 21:25:00,47.1,25.7,30.15,North,0,0.0,0.0,43,0.00,CLR,,0.00,WeatherDisplay:10.37,2013-05-22 05:25:00,
2013-05-21 21:30:00,46.8,25.4,30.15,North,0,0.0,0.0,43,0.00,CLR,,0.00,WeatherDisplay:10.37,2013-05-22 05:30:00,
2013-05-21 21:35:00,46.8,25.4,30.15,North,0,0.0,0.0,43,0.00,CLR,,0.00,WeatherDisplay:10.37,2013-05-22 05:35:00,
2013-05-21 21:40:00,46.4,25.6,30.15,North,0,0.0,0.0,44,0.00,CLR,,0.00,WeatherDisplay:10.37,2013-05-22 05:40:00,
2013-05-21 21:45:00,46.2,26.6,30.15,North,0,0.0,0.0,46,0.00,CLR,,0.00,WeatherDisplay:10.37,2013-05-22 05:45:00,
2013-05-21 21:50:00,46.0,27.4,30.15,North,0,0.0,0.0,48,0.00,CLR,,0.00,WeatherDisplay:10.37,2013-05-22 05:50:00,
2013-05-21 21:55:00,45.7,27.6,30.15,North,0,0.0,0.0,49,0.00,CLR,,0.00,WeatherDisplay:10.37,2013-05-22 05:55:00,
2013-05-21 22:00:00,45.5,27.4,30.15,North,0,0.0,0.0,49,0.00,CLR,,0.00,WeatherDisplay:10.37,2013-05-22 06:00:00,
2013-05-21 22:05:00,45.3,28.2,30.15,North,0,0.0,0.0,51,0.00,CLR,,0.00,WeatherDisplay:10.37,2013-05-22 06:05:00,
2013-05-21 22:10:00,45.1,28.1,30.15,North,0,0.0,0.0,51,0.00,CLR,,0.00,WeatherDisplay:10.37,2013-05-22 06:10:00,
2013-05-21 22:15:00,44.8,28.2,30.15,North,0,0.0,0.0,52,0.00,CLR,,0.00,WeatherDisplay:10.37,2013-05-22 06:15:00,
2013-05-21 22:20:00,44.8,28.2,30.15,North,0,0.0,0.0,52,0.00,CLR,,0.00,WeatherDisplay:10.37,2013-05-22 06:20:00,
2013-05-21 22:25:00,44.6,28.5,30.15,North,0,0.0,0.0,53,0.00,CLR,,0.00,WeatherDisplay:10.37,2013-05-22 06:25:00,
2013-05-21 22:30:00,44.2,28.2,30.15,North,0,0.0,0.0,53,0.00,CLR,,0.00,WeatherDisplay:10.37,2013-05-22 06:30:00,
2013-05-21 22:35:00,44.2,28.6,30.15,North,0,0.0,0.0,54,0.00,CLR,,0.00,WeatherDisplay:10.37,2013-05-22 06:35:00,
2013-05-21 22:40:00,43.9,29.2,30.15,North,0,0.0,0.0,56,0.00,CLR,,0.00,WeatherDisplay:10.37,2013-05-22 06:40:00,
2013-05-21 22:45:00,43.7,29.0,30.15,North,0,0.0,0.0,56,0.00,CLR,,0.00,WeatherDisplay:10.37,2013-05-22 06:45:00,
2013-05-21 22:50:00,43.5,29.3,30.15,North,0,0.0,0.0,57,0.00,CLR,,0.00,WeatherDisplay:10.37,2013-05-22 06:50:00,
2013-05-21 22:55:00,43.3,29.1,30.15,North,0,0.0,0.0,57,0.00,CLR,,0.00,WeatherDisplay:10.37,2013-05-22 06:55:00,
2013-05-21 23:00:00,43.2,29.4,30.15,North,0,0.0,0.0,58,0.00,CLR,,0.00,WeatherDisplay:10.37,2013-05-22 07:00:00,
2013-05-21 23:05:00,43.0,29.6,30.15,North,0,0.0,0.0,59,0.00,CLR,,0.00,WeatherDisplay:10.37,2013-05-22 07:05:00,
2013-05-21 23:10:00,42.6,29.7,30.15,North,0,0.0,0.0,60,0.00,CLR,,0.00,WeatherDisplay:10.37,2013-05-22 07:10:00,
2013-05-21 23:15:00,42.3,28.9,30.15,North,0,0.0,0.0,59,0.00,CLR,,0.00,WeatherDisplay:10.37,2013-05-22 07:15:00,
2013-05-21 23:20:00,41.7,28.4,30.15,North,0,0.0,0.0,59,0.00,CLR,,0.00,WeatherDisplay:10.37,2013-05-22 07:20:00,
2013-05-21 23:25:00,41.5,28.7,30.15,North,0,0.0,0.0,60,0.00,CLR,,0.00,WeatherDisplay:10.37,2013-05-22 07:25:00,
2013-05-21 23:30:00,41.2,28.7,30.15,North,0,0.0,0.0,61,0.00,CLR,,0.00,WeatherDisplay:10.37,2013-05-22 07:30:00,
2013-05-21 23:35:00,41.0,28.6,30.15,North,0,0.0,0.0,61,0.00,CLR,,0.00,WeatherDisplay:10.37,2013-05-22 07:35:00,
2013-05-21 23:40:00,40.8,28.8,30.15,North,0,0.0,0.0,62,0.00,CLR,,0.00,WeatherDisplay:10.37,2013-05-22 07:40:00,
2013-05-21 23:45:00,40.6,28.6,30.15,North,0,0.0,0.0,62,0.00,CLR,,0.00,WeatherDisplay:10.37,2013-05-22 07:45:00,
2013-05-21 23:50:00,40.6,29.0,30.15,North,0,0.0,0.0,63,0.00,CLR,,0.00,WeatherDisplay:10.37,2013-05-22 07:50:00,
2013-05-21 23:55:00,40.5,28.8,30.15,North,0,0.0,0.0,63,0.00,CLR,,0.00,WeatherDisplay:10.37,2013-05-22 07:55:00,